Aeroporto :
LOGIN :

Iscrizione | Disclaimer

   EN    FR    IT 

 










Sommario :    VFR   VFR Marginale   IFR   IFR Intensivo   IFR Molto Intensivo
Visibilità : 
Base nubi : 
>= 8 km
>= 3000ft
5 / 8 km
1000 / 3000 ft
1500m / 5 km
500 / 1000 ft
800 / 1500m
200 / 500 ft
< 800m
< 200 ft
Simboli :   Temporali  Nebbia  Neve Forte  Precipitazioni Forti  Vento > 20 kt
SIGMETs :   Varie  Temporali  Ghiacco  Turbolenza  Onda orograficha  Ceneri Vulcaniche






- Altitudine del aeroporto : 15 ft
- Codice IATA : BHD


EGAC - George Best Belfast City

ULTIMO METAR :
  • 251250Z AUTO 25012KT 9999 SCT023/// BKN029/// 05/01 Q0994

METARs OBSOLETI :
  • 251220Z AUTO 24011KT 9999 BKN020/// BKN025/// 05/02 Q0994
  • 251150Z AUTO 23011KT 9999 BKN019/// 05/02 Q0994
  • 251120Z AUTO 25008KT 220V290 9999 BKN017/// OVC030/// 04/02 Q0994
  • 251050Z AUTO 25011KT 9999 BKN016/// 04/02 Q0994
  • 251020Z AUTO 23013KT 9999 SCT014/// BKN019/// 04/01 Q0995

TAF TAF EGAC
Valido dal 25 a 12 ore il 25 a 21 ore UTC


251101Z 2512/2521 24012KT 9999 FEW012 SCT020
PROB30
TEMPO 2512/2518 24015G25KT 4000 SHRASN BKN012 BKN018CB
PROB40
TEMPO 2518/2521 26015G25KT 2000 SHRASN SHRAGS BKN005 BKN012CB
ATIS : +44 02890 935 124



MetMap, La meteo Aeronautica in un colpo d'occhio ! - Copyright ORBIFLY Dicembre 2007 - Disclaimer

ORBIFLY MET'MAP TEAM :

Programmazione e sviluppo : Alexandra Zaïnal
Concezione : Baudouin d'Aumeries
Aiuto per la programmazione : Marc-Olivier Méhu
Supporto tecnico e logistico : Manuel Goepfert
Aiuto per la traduzione : Arnaldo La Scala

Contatto : metmap@orbifly.com




FONTI E CREDITI :

   NOAA